createdAt,value
2023-04-03T00:01:04.912Z,39.69
2023-04-03T00:03:31.616Z,40.38
2023-04-03T00:05:58.857Z,40.82
2023-04-03T00:08:25.968Z,39.19
2023-04-03T00:10:53.079Z,40.01
2023-04-03T00:13:19.896Z,39.42
2023-04-03T00:15:46.677Z,39.67
2023-04-03T00:18:13.430Z,42.51
2023-04-03T00:20:40.946Z,41.17
2023-04-03T00:23:08.008Z,42.00
2023-04-03T00:25:35.837Z,41.11
2023-04-03T00:28:03.323Z,39.96
2023-04-03T00:30:30.368Z,40.04
2023-04-03T00:32:57.718Z,39.38
2023-04-03T00:35:26.000Z,40.46
2023-04-03T00:37:54.723Z,40.90
2023-04-03T00:40:25.181Z,39.89
2023-04-03T00:42:59.296Z,40.17
2023-04-03T00:45:47.802Z,41.81
2023-04-03T00:48:22.701Z,40.78
2023-04-03T00:50:50.935Z,42.02
2023-04-03T00:53:22.555Z,41.63
2023-04-03T00:55:51.081Z,41.08
2023-04-03T00:58:22.411Z,41.21
2023-04-03T01:00:58.528Z,42.47
2023-04-03T01:03:26.401Z,42.08
2023-04-03T01:05:55.083Z,42.23
2023-04-03T01:08:21.846Z,41.18
2023-04-03T01:10:49.750Z,41.98
2023-04-03T01:13:43.777Z,39.51
2023-04-03T01:16:12.320Z,40.32
2023-04-03T01:18:41.579Z,40.74
2023-04-03T01:21:32.208Z,38.35
2023-04-03T01:24:17.320Z,37.55
2023-04-03T01:26:44.816Z,40.44
2023-04-03T01:29:12.542Z,40.28
2023-04-03T01:31:57.623Z,39.26
2023-04-03T01:34:25.647Z,40.38
2023-04-03T01:36:53.533Z,40.54
2023-04-03T01:39:22.036Z,40.20
2023-04-03T01:41:50.186Z,39.73
2023-04-03T01:44:43.408Z,40.55
2023-04-03T01:47:10.382Z,39.67
2023-04-03T01:49:39.371Z,38.31
2023-04-03T01:52:06.812Z,37.59
2023-04-03T01:54:33.921Z,39.64
2023-04-03T01:57:01.116Z,37.66
2023-04-03T01:59:28.032Z,38.96
2023-04-03T02:01:55.123Z,38.28
2023-04-03T02:04:22.415Z,38.57
2023-04-03T02:06:49.467Z,39.41
2023-04-03T02:09:16.380Z,40.15
2023-04-03T02:11:43.086Z,38.98
2023-04-03T02:14:10.875Z,39.22
2023-04-03T02:16:37.829Z,38.66
2023-04-03T02:19:04.711Z,39.90
2023-04-03T02:21:31.651Z,39.30
2023-04-03T02:23:58.385Z,39.63
2023-04-03T02:26:26.168Z,40.63
2023-04-03T02:28:53.525Z,38.48
2023-04-03T02:31:20.466Z,40.24
2023-04-03T02:33:47.743Z,37.46
2023-04-03T02:36:16.286Z,39.64
2023-04-03T02:38:47.675Z,39.89
2023-04-03T02:41:14.447Z,38.20
2023-04-03T02:43:41.367Z,40.30
2023-04-03T02:46:09.098Z,36.95
2023-04-03T02:48:36.633Z,38.72
2023-04-03T02:51:03.462Z,37.90
2023-04-03T02:53:30.384Z,38.33
2023-04-03T02:55:58.673Z,38.69
2023-04-03T02:58:25.485Z,39.27
2023-04-03T03:00:55.107Z,39.49
2023-04-03T03:03:22.203Z,41.36
2023-04-03T03:05:49.211Z,40.05
2023-04-03T03:08:16.317Z,37.96
2023-04-03T03:10:43.565Z,38.46
2023-04-03T03:13:10.311Z,40.70
2023-04-03T03:15:37.309Z,41.50
2023-04-03T03:18:04.347Z,37.51
2023-04-03T03:20:31.055Z,38.22
2023-04-03T03:22:58.880Z,38.04
2023-04-03T03:25:25.826Z,40.09
2023-04-03T03:27:52.798Z,37.35
2023-04-03T03:30:19.577Z,35.77
2023-04-03T03:32:46.888Z,38.41
2023-04-03T03:35:14.223Z,37.20
2023-04-03T03:37:41.147Z,38.08
2023-04-03T03:40:09.074Z,39.70
2023-04-03T03:42:37.063Z,38.50
2023-04-03T03:45:04.932Z,39.18
2023-04-03T03:47:32.086Z,38.73
2023-04-03T03:49:59.328Z,38.82
2023-04-03T03:52:27.714Z,39.55
2023-04-03T03:54:54.889Z,38.98
2023-04-03T03:57:21.845Z,38.91
2023-04-03T03:59:49.907Z,38.65
2023-04-03T04:02:18.706Z,37.08
2023-04-03T04:04:45.593Z,38.45
2023-04-03T04:07:14.221Z,37.82
2023-04-03T04:09:41.657Z,37.64
2023-04-03T04:12:09.635Z,37.30
2023-04-03T04:14:36.930Z,38.65
2023-04-03T04:17:04.694Z,38.20
2023-04-03T04:19:31.625Z,39.20
2023-04-03T04:21:59.171Z,36.18
2023-04-03T04:24:26.996Z,38.43
2023-04-03T04:26:56.134Z,39.02
2023-04-03T04:29:24.125Z,37.10
2023-04-03T04:31:52.134Z,37.75
2023-04-03T04:34:18.932Z,36.92
2023-04-03T04:36:45.942Z,38.69
2023-04-03T04:39:13.312Z,38.41
2023-04-03T04:41:40.860Z,37.40
2023-04-03T04:44:09.400Z,39.15
2023-04-03T04:46:36.739Z,40.49
2023-04-03T04:49:05.294Z,39.01
2023-04-03T04:51:41.177Z,38.69
2023-04-03T04:54:16.956Z,37.72
2023-04-03T04:56:44.935Z,38.02
2023-04-03T04:59:12.069Z,37.96
2023-04-03T05:01:39.904Z,39.78
2023-04-03T05:04:16.198Z,39.55
2023-04-03T05:06:45.605Z,38.26
2023-04-03T05:09:17.105Z,39.69
2023-04-03T05:11:46.076Z,41.53
2023-04-03T05:14:15.286Z,38.75
2023-04-03T05:16:42.240Z,40.22
2023-04-03T05:19:09.590Z,40.79
2023-04-03T05:21:37.710Z,41.40
2023-04-03T05:24:10.437Z,41.21
2023-04-03T05:26:40.396Z,39.33
2023-04-03T05:29:08.046Z,38.98
2023-04-03T05:31:35.420Z,39.44
2023-04-03T05:34:02.316Z,39.99
2023-04-03T05:36:31.238Z,40.51
2023-04-03T05:39:03.352Z,38.97
2023-04-03T05:41:30.487Z,40.95
2023-04-03T05:43:57.278Z,39.39
2023-04-03T05:46:25.628Z,38.84
2023-04-03T05:48:55.617Z,41.61
2023-04-03T05:51:33.717Z,40.71
2023-04-03T05:54:17.318Z,40.03
2023-04-03T05:56:45.174Z,40.43
2023-04-03T05:59:12.171Z,41.09
2023-04-03T06:01:39.837Z,40.46
2023-04-03T06:04:06.747Z,39.70
2023-04-03T06:06:54.974Z,40.27
2023-04-03T06:09:24.269Z,37.89
2023-04-03T06:11:51.406Z,41.42
2023-04-03T06:14:18.517Z,38.83
2023-04-03T06:16:46.083Z,38.26
2023-04-03T06:19:13.382Z,37.24
2023-04-03T06:21:46.684Z,41.97
2023-04-03T06:24:16.727Z,40.33
2023-04-03T06:26:44.473Z,40.11
2023-04-03T06:29:11.283Z,38.53
2023-04-03T06:31:38.195Z,36.98
2023-04-03T06:34:06.788Z,39.79
2023-04-03T06:36:35.659Z,39.86
2023-04-03T06:39:04.056Z,38.01
2023-04-03T06:41:31.594Z,38.60
2023-04-03T06:43:59.306Z,38.33
2023-04-03T06:46:27.844Z,39.48
2023-04-03T06:48:55.028Z,38.78
2023-04-03T06:51:29.497Z,39.30
2023-04-03T06:53:59.556Z,37.90
2023-04-03T06:56:27.855Z,38.13
2023-04-03T06:58:58.827Z,40.30
2023-04-03T07:01:31.061Z,39.23
2023-04-03T07:03:58.025Z,40.43
2023-04-03T07:06:28.080Z,40.63
2023-04-03T07:08:56.307Z,40.44
2023-04-03T07:11:23.584Z,38.92
2023-04-03T07:13:51.389Z,38.43
2023-04-03T07:16:18.444Z,38.18
2023-04-03T07:18:46.649Z,38.20
2023-04-03T07:21:14.123Z,38.34
2023-04-03T07:23:41.540Z,36.49
2023-04-03T07:26:09.110Z,39.02
2023-04-03T07:28:37.691Z,38.28
2023-04-03T07:31:09.513Z,40.68
2023-04-03T07:33:38.284Z,37.71
2023-04-03T07:36:07.896Z,39.69
2023-04-03T07:38:36.502Z,39.01
2023-04-03T07:41:04.560Z,36.86
2023-04-03T07:43:31.509Z,36.96
2023-04-03T07:45:58.262Z,37.67
2023-04-03T07:48:27.487Z,37.28
2023-04-03T07:50:54.365Z,40.50
2023-04-03T07:53:21.118Z,36.63
2023-04-03T07:55:48.523Z,40.09
2023-04-03T07:58:18.122Z,39.44
2023-04-03T08:00:46.256Z,39.36
2023-04-03T08:03:13.956Z,42.51
2023-04-03T08:05:43.223Z,40.41
2023-04-03T08:08:12.808Z,37.31
2023-04-03T08:10:39.580Z,37.02
2023-04-03T08:13:07.163Z,38.98
2023-04-03T08:15:34.125Z,40.52
2023-04-03T08:18:02.046Z,41.83
2023-04-03T08:20:29.728Z,36.82
2023-04-03T08:22:57.115Z,40.46
2023-04-03T08:25:23.823Z,39.59
2023-04-03T08:27:50.713Z,38.40
2023-04-03T08:30:17.674Z,40.18
2023-04-03T08:32:45.702Z,38.38
2023-04-03T08:35:13.174Z,38.83
2023-04-03T08:37:41.389Z,39.42
2023-04-03T08:40:14.358Z,37.81
2023-04-03T08:43:09.602Z,36.76
2023-04-03T08:45:46.712Z,40.04
2023-04-03T08:48:20.617Z,39.68
2023-04-03T08:50:53.040Z,37.50
2023-04-03T08:53:22.952Z,36.65
2023-04-03T08:55:51.454Z,40.28
2023-04-03T08:58:31.086Z,40.92
2023-04-03T09:01:06.845Z,38.61
2023-04-03T09:03:39.216Z,39.47
2023-04-03T09:06:11.971Z,38.24
2023-04-03T09:09:02.190Z,37.52
2023-04-03T09:11:54.914Z,39.64
2023-04-03T09:14:33.468Z,38.49
2023-04-03T09:17:04.363Z,42.11
2023-04-03T09:20:10.955Z,39.44
2023-04-03T09:22:46.181Z,38.64
2023-04-03T09:25:23.276Z,38.31
2023-04-03T09:27:52.257Z,38.10
2023-04-03T09:30:22.581Z,37.95
2023-04-03T09:32:51.796Z,36.14
2023-04-03T09:35:32.742Z,36.85
2023-04-03T09:38:14.250Z,38.28
2023-04-03T09:41:05.493Z,37.85
2023-04-03T09:43:39.962Z,38.35
2023-04-03T09:46:31.459Z,37.65
2023-04-03T09:49:08.852Z,40.49
2023-04-03T09:51:36.091Z,37.17
2023-04-03T09:54:28.328Z,35.28
2023-04-03T09:56:56.854Z,37.68
2023-04-03T09:59:23.928Z,38.29
2023-04-03T10:02:46.744Z,38.88
2023-04-03T10:05:38.178Z,36.51
2023-04-03T10:08:20.902Z,35.65
2023-04-03T10:10:50.281Z,39.27
2023-04-03T10:13:24.453Z,40.48
2023-04-03T10:16:08.042Z,35.63
2023-04-03T10:18:45.811Z,39.29
2023-04-03T10:21:28.487Z,38.24
2023-04-03T10:24:16.480Z,36.38
2023-04-03T10:27:00.170Z,37.11
2023-04-03T10:30:04.854Z,36.70
2023-04-03T10:32:32.836Z,37.69
2023-04-03T10:35:14.876Z,37.25
2023-04-03T10:37:57.058Z,35.93
2023-04-03T10:40:27.917Z,37.36
2023-04-03T10:43:18.867Z,36.87
2023-04-03T10:46:07.353Z,36.25
2023-04-03T10:48:36.787Z,38.45
2023-04-03T10:51:09.398Z,38.01
2023-04-03T10:53:46.056Z,37.11
2023-04-03T10:56:23.005Z,38.98
2023-04-03T10:58:58.903Z,36.81
2023-04-03T11:01:32.976Z,36.93
2023-04-03T11:04:02.982Z,36.29
2023-04-03T11:06:39.758Z,38.38
2023-04-03T11:09:20.956Z,35.05
2023-04-03T11:11:50.319Z,34.54
2023-04-03T11:14:33.257Z,34.83
2023-04-03T11:17:39.280Z,34.69
2023-04-03T11:20:18.460Z,33.29
2023-04-03T11:22:55.787Z,34.63
2023-04-03T11:25:26.102Z,34.60
2023-04-03T11:27:55.799Z,34.53
2023-04-03T11:30:58.266Z,32.08
2023-04-03T11:33:32.338Z,32.19
2023-04-03T11:36:12.448Z,34.07
2023-04-03T11:38:48.578Z,35.60
2023-04-03T11:41:17.471Z,36.38
2023-04-03T11:44:27.404Z,35.29
2023-04-03T11:46:57.654Z,35.40
2023-04-03T11:50:00.867Z,34.52
2023-04-03T11:52:43.703Z,36.30
2023-04-03T11:55:23.187Z,36.92
2023-04-03T11:58:02.505Z,36.40
2023-04-03T12:00:52.522Z,37.11
2023-04-03T12:03:25.901Z,36.79
2023-04-03T12:05:58.340Z,36.98
2023-04-03T12:08:25.331Z,37.55
2023-04-03T12:11:31.166Z,38.19
2023-04-03T12:13:58.033Z,36.36
2023-04-03T12:16:34.054Z,36.06
2023-04-03T12:19:04.670Z,36.00
2023-04-03T12:21:37.544Z,36.96
2023-04-03T12:24:10.827Z,34.86
2023-04-03T12:26:59.715Z,37.44
2023-04-03T12:29:34.777Z,35.68
2023-04-03T12:32:15.815Z,36.32
2023-04-03T12:34:53.890Z,37.15
2023-04-03T12:37:31.397Z,35.53
2023-04-03T12:40:39.681Z,37.19
2023-04-03T12:43:19.073Z,33.85
2023-04-03T12:46:11.023Z,34.55
2023-04-03T12:48:54.679Z,35.77
2023-04-03T12:51:30.596Z,34.83
2023-04-03T12:54:24.038Z,36.70
2023-04-03T12:56:51.638Z,34.42
2023-04-03T12:59:22.777Z,35.47
2023-04-03T13:02:03.085Z,33.03
2023-04-03T13:04:32.496Z,32.72
2023-04-03T13:07:00.192Z,34.46
2023-04-03T13:09:29.757Z,35.58
2023-04-03T13:12:04.621Z,33.49
2023-04-03T13:14:32.187Z,33.18
2023-04-03T13:17:12.559Z,32.77
2023-04-03T13:19:40.664Z,34.92
2023-04-03T13:22:26.546Z,33.32
2023-04-03T13:24:56.282Z,32.97
2023-04-03T13:27:23.905Z,32.96
2023-04-03T13:29:55.262Z,32.51
2023-04-03T13:32:25.423Z,32.58
2023-04-03T13:34:53.011Z,33.41
2023-04-03T13:37:28.909Z,36.37
2023-04-03T13:40:11.908Z,36.19
2023-04-03T13:42:43.970Z,33.48
2023-04-03T13:45:21.108Z,34.89
2023-04-03T13:47:49.966Z,35.22
2023-04-03T13:50:25.388Z,35.39
2023-04-03T13:52:55.226Z,34.75
2023-04-03T13:55:29.929Z,33.42
2023-04-03T13:58:25.355Z,33.33
2023-04-03T14:00:56.501Z,31.21
2023-04-03T14:03:27.239Z,30.73
2023-04-03T14:05:55.043Z,33.68
2023-04-03T14:08:29.422Z,33.51
2023-04-03T14:11:03.367Z,33.49
2023-04-03T14:13:31.308Z,28.92
2023-04-03T14:16:00.427Z,32.90
2023-04-03T14:18:33.140Z,32.86
2023-04-03T14:21:00.192Z,33.32
2023-04-03T14:23:26.955Z,31.98
2023-04-03T14:25:54.361Z,29.84
2023-04-03T14:28:22.756Z,33.22
2023-04-03T14:30:52.558Z,32.66
2023-04-03T14:33:22.701Z,35.37
2023-04-03T14:35:50.490Z,34.02
2023-04-03T14:38:23.492Z,33.04
2023-04-03T14:40:52.065Z,30.92
2023-04-03T14:43:21.098Z,31.79
2023-04-03T14:45:49.277Z,31.68
2023-04-03T14:48:26.661Z,32.95
2023-04-03T14:51:04.625Z,32.70
2023-04-03T14:53:38.910Z,31.75
2023-04-03T14:56:13.129Z,32.27
2023-04-03T14:58:39.861Z,30.65
2023-04-03T15:01:06.671Z,32.90
2023-04-03T15:03:33.795Z,33.74
2023-04-03T15:06:01.138Z,31.23
2023-04-03T15:08:30.626Z,32.51
2023-04-03T15:10:57.549Z,31.77
2023-04-03T15:13:26.308Z,32.28
2023-04-03T15:15:53.727Z,30.13
2023-04-03T15:18:29.101Z,30.22
2023-04-03T15:20:57.812Z,30.57
2023-04-03T15:23:29.379Z,29.38
2023-04-03T15:25:56.550Z,31.00
2023-04-03T15:28:30.977Z,30.79
2023-04-03T15:30:58.496Z,31.08
2023-04-03T15:33:26.542Z,30.30
2023-04-03T15:35:55.817Z,30.99
2023-04-03T15:38:23.060Z,28.62
2023-04-03T15:40:50.704Z,30.12
2023-04-03T15:43:18.111Z,28.67
2023-04-03T15:45:45.463Z,29.98
2023-04-03T15:48:13.125Z,31.17
2023-04-03T15:50:40.930Z,29.10
2023-04-03T15:53:08.453Z,30.04
2023-04-03T15:55:38.298Z,29.40
2023-04-03T15:58:06.087Z,30.53
2023-04-03T16:00:33.258Z,29.91
2023-04-03T16:03:09.470Z,31.49
2023-04-03T16:05:38.808Z,29.58
2023-04-03T16:08:07.682Z,30.80
2023-04-03T16:10:36.805Z,30.53
2023-04-03T16:13:05.365Z,29.82
2023-04-03T16:15:33.873Z,30.56
2023-04-03T16:18:02.183Z,30.61
2023-04-03T16:20:29.492Z,30.21
2023-04-03T16:22:59.157Z,29.94
2023-04-03T16:25:25.993Z,30.27
2023-04-03T16:27:53.621Z,31.65
2023-04-03T16:30:21.405Z,30.68
2023-04-03T16:32:48.297Z,29.94
2023-04-03T16:35:15.300Z,32.25
2023-04-03T16:37:42.172Z,32.18
2023-04-03T16:40:09.890Z,34.44
2023-04-03T16:42:37.959Z,33.30
2023-04-03T16:45:07.149Z,32.81
2023-04-03T16:47:34.231Z,34.94
2023-04-03T16:50:01.425Z,35.88
2023-04-03T16:52:28.446Z,34.67
2023-04-03T16:54:56.704Z,34.99
2023-04-03T16:57:25.840Z,34.45
2023-04-03T16:59:54.000Z,34.03
2023-04-03T17:02:25.829Z,31.81
2023-04-03T17:04:53.856Z,30.93
2023-04-03T17:07:22.557Z,34.13
2023-04-03T17:09:49.887Z,31.98
2023-04-03T17:12:17.512Z,35.74
2023-04-03T17:14:44.631Z,36.08
2023-04-03T17:17:11.475Z,36.18
2023-04-03T17:19:39.434Z,32.02
2023-04-03T17:22:06.865Z,33.27
2023-04-03T17:24:34.544Z,32.12
2023-04-03T17:27:01.929Z,32.17
2023-04-03T17:29:28.835Z,31.12
2023-04-03T17:31:55.837Z,34.08
2023-04-03T17:34:22.786Z,34.59
2023-04-03T17:36:49.674Z,34.97
2023-04-03T17:39:16.690Z,32.41
2023-04-03T17:41:45.975Z,33.22
2023-04-03T17:44:13.319Z,33.21
2023-04-03T17:46:40.689Z,33.68
2023-04-03T17:49:07.738Z,30.93
2023-04-03T17:51:34.678Z,31.18
2023-04-03T17:54:02.551Z,30.53
2023-04-03T17:56:29.356Z,31.03
2023-04-03T17:58:58.516Z,30.76
2023-04-03T18:01:28.562Z,29.52
2023-04-03T18:03:57.423Z,29.56
2023-04-03T18:06:28.074Z,29.66
2023-04-03T18:08:58.975Z,29.28
2023-04-03T18:11:28.506Z,30.50
2023-04-03T18:14:00.177Z,30.30
2023-04-03T18:16:28.082Z,30.68
2023-04-03T18:19:06.802Z,30.11
2023-04-03T18:21:42.054Z,29.37
2023-04-03T18:24:13.350Z,30.79
2023-04-03T18:26:43.475Z,28.93
2023-04-03T18:29:11.969Z,30.36
2023-04-03T18:31:41.908Z,30.93
2023-04-03T18:34:08.713Z,30.32
2023-04-03T18:36:35.638Z,30.67
2023-04-03T18:39:03.839Z,32.04
2023-04-03T18:41:33.849Z,30.65
2023-04-03T18:44:03.883Z,30.85
2023-04-03T18:46:32.781Z,32.84
2023-04-03T18:48:59.822Z,32.70
2023-04-03T18:51:27.565Z,30.78
2023-04-03T18:53:54.441Z,30.00
2023-04-03T18:56:23.011Z,29.31
2023-04-03T18:58:49.889Z,29.63
2023-04-03T19:01:17.171Z,31.40
2023-04-03T19:03:44.263Z,31.48
2023-04-03T19:06:11.434Z,31.03
2023-04-03T19:08:38.495Z,30.50
2023-04-03T19:11:05.268Z,31.30
2023-04-03T19:13:32.662Z,31.67
2023-04-03T19:16:00.083Z,30.68
2023-04-03T19:18:27.774Z,30.00
2023-04-03T19:20:56.354Z,30.16
2023-04-03T19:23:24.491Z,30.70
2023-04-03T19:26:01.928Z,30.41
2023-04-03T19:28:29.272Z,31.21
2023-04-03T19:30:57.976Z,31.05
2023-04-03T19:33:25.295Z,31.29
2023-04-03T19:35:53.104Z,31.01
2023-04-03T19:38:20.092Z,33.04
2023-04-03T19:40:47.461Z,30.83
2023-04-03T19:43:16.887Z,32.59
2023-04-03T19:45:46.178Z,32.80
2023-04-03T19:48:13.710Z,31.32
2023-04-03T19:50:40.886Z,30.92
2023-04-03T19:53:09.851Z,31.34
2023-04-03T19:55:37.593Z,31.22
2023-04-03T19:58:04.749Z,30.48
2023-04-03T20:00:32.239Z,31.25
2023-04-03T20:02:59.202Z,30.84
2023-04-03T20:05:26.241Z,31.68
2023-04-03T20:07:53.740Z,31.50
2023-04-03T20:10:20.715Z,29.63
2023-04-03T20:12:47.938Z,28.96
2023-04-03T20:15:14.762Z,29.18
2023-04-03T20:17:42.166Z,29.67
2023-04-03T20:20:09.945Z,30.01
2023-04-03T20:22:38.680Z,29.23
2023-04-03T20:25:09.399Z,29.07
2023-04-03T20:27:36.736Z,30.71
2023-04-03T20:30:08.853Z,29.99
2023-04-03T20:32:35.936Z,29.62
2023-04-03T20:35:04.572Z,29.12
2023-04-03T20:37:32.661Z,28.91
2023-04-03T20:39:59.539Z,28.64
2023-04-03T20:42:26.852Z,29.11
2023-04-03T20:44:57.310Z,29.24
2023-04-03T20:47:24.361Z,30.31
2023-04-03T20:49:53.903Z,29.58
2023-04-03T20:52:20.865Z,30.32
2023-04-03T20:54:48.013Z,28.49
2023-04-03T20:57:15.520Z,30.24
2023-04-03T20:59:42.691Z,31.74
2023-04-03T21:02:09.476Z,31.43
2023-04-03T21:04:48.695Z,30.38
2023-04-03T21:07:53.390Z,29.81
2023-04-03T21:10:57.562Z,29.14
2023-04-03T21:14:01.888Z,29.45
2023-04-03T21:16:28.564Z,28.73
2023-04-03T21:19:20.051Z,29.29
2023-04-03T21:21:47.238Z,28.31
2023-04-03T21:24:17.085Z,29.63
2023-04-03T21:26:44.273Z,29.10
2023-04-03T21:29:11.567Z,29.13
2023-04-03T21:31:47.234Z,29.02
2023-04-03T21:34:18.480Z,29.23
2023-04-03T21:36:45.699Z,30.05
2023-04-03T21:39:12.853Z,30.98
2023-04-03T21:41:39.680Z,31.16
2023-04-03T21:44:07.499Z,32.16
2023-04-03T21:46:34.521Z,29.57
2023-04-03T21:49:01.469Z,31.03
2023-04-03T21:51:28.947Z,31.43
2023-04-03T21:53:56.505Z,30.28
2023-04-03T21:56:24.426Z,31.67
2023-04-03T21:58:52.069Z,32.21
2023-04-03T22:01:20.218Z,32.52
2023-04-03T22:03:47.423Z,31.98
2023-04-03T22:06:16.479Z,31.44
2023-04-03T22:08:44.207Z,32.74
2023-04-03T22:11:14.045Z,32.57
2023-04-03T22:13:41.920Z,33.00
2023-04-03T22:16:11.309Z,33.43
2023-04-03T22:18:39.910Z,31.70
2023-04-03T22:21:08.653Z,33.48
2023-04-03T22:23:35.856Z,32.69
2023-04-03T22:26:05.856Z,34.17
2023-04-03T22:28:35.413Z,33.58
2023-04-03T22:31:09.056Z,34.90
2023-04-03T22:33:39.900Z,33.23
2023-04-03T22:36:09.916Z,33.40
2023-04-03T22:38:37.581Z,34.38
2023-04-03T22:41:06.508Z,33.88
2023-04-03T22:43:36.359Z,32.45
2023-04-03T22:46:05.371Z,34.30
2023-04-03T22:48:32.124Z,34.41
2023-04-03T22:51:02.446Z,34.76
2023-04-03T22:53:29.327Z,33.49
2023-04-03T22:56:00.146Z,34.67
2023-04-03T22:58:27.985Z,33.56
2023-04-03T23:01:08.382Z,33.45
2023-04-03T23:03:36.609Z,33.51
2023-04-03T23:06:05.047Z,33.37
2023-04-03T23:08:34.544Z,33.30
2023-04-03T23:11:02.383Z,35.84
2023-04-03T23:13:29.882Z,33.18
2023-04-03T23:15:57.899Z,34.84
2023-04-03T23:18:26.152Z,35.57
2023-04-03T23:20:55.360Z,33.37
2023-04-03T23:23:24.546Z,34.50
2023-04-03T23:25:52.922Z,35.81
2023-04-03T23:28:20.271Z,34.73
2023-04-03T23:30:47.520Z,34.27
2023-04-03T23:33:14.540Z,34.71
2023-04-03T23:35:48.203Z,34.62
2023-04-03T23:38:15.863Z,34.76
2023-04-03T23:40:43.056Z,35.65
2023-04-03T23:43:11.185Z,34.88
2023-04-03T23:45:38.428Z,34.91
2023-04-03T23:48:06.233Z,33.85
2023-04-03T23:50:33.478Z,35.86
2023-04-03T23:53:00.985Z,36.33
2023-04-03T23:55:27.811Z,33.60
2023-04-03T23:57:54.863Z,35.35
